createdAt,value
2022-08-21T00:01:59.349Z,99.90
2022-08-21T00:07:01.043Z,99.90
2022-08-21T00:12:03.526Z,99.90
2022-08-21T00:17:05.905Z,99.90
2022-08-21T00:22:07.644Z,99.90
2022-08-21T00:27:09.314Z,99.90
2022-08-21T00:32:10.960Z,99.90
2022-08-21T00:37:12.669Z,99.90
2022-08-21T00:42:15.879Z,99.90
2022-08-21T00:47:19.554Z,99.90
2022-08-21T00:52:25.430Z,99.90
2022-08-21T00:57:31.250Z,99.90
2022-08-21T01:02:32.918Z,99.90
2022-08-21T01:07:34.787Z,99.90
2022-08-21T01:12:37.013Z,99.90
2022-08-21T01:17:39.152Z,99.90
2022-08-21T01:22:41.061Z,99.90
2022-08-21T01:27:43.098Z,99.90
2022-08-21T01:32:45.367Z,99.90
2022-08-21T01:37:47.977Z,99.90
2022-08-21T01:42:49.696Z,99.90
2022-08-21T01:47:51.382Z,99.90
2022-08-21T01:52:53.031Z,99.90
2022-08-21T01:57:54.962Z,99.90
2022-08-21T02:02:57.062Z,99.90
2022-08-21T02:07:58.885Z,99.90
2022-08-21T02:13:01.454Z,99.90
2022-08-21T02:18:06.194Z,99.90
2022-08-21T02:23:09.647Z,99.90
2022-08-21T02:28:13.302Z,99.90
2022-08-21T02:33:15.732Z,99.90
2022-08-21T02:38:23.689Z,99.90
2022-08-21T02:43:27.554Z,99.90
2022-08-21T02:48:32.255Z,99.90
2022-08-21T02:53:35.212Z,99.90
2022-08-21T02:58:42.667Z,99.90
2022-08-21T03:03:45.633Z,99.90
2022-08-21T03:08:47.871Z,99.90
2022-08-21T03:13:49.534Z,99.90
2022-08-21T03:18:51.196Z,99.90
2022-08-21T03:23:54.986Z,99.90
2022-08-21T03:28:58.604Z,99.90
2022-08-21T03:34:00.252Z,99.90
2022-08-21T03:39:01.935Z,99.90
2022-08-21T03:44:03.961Z,99.90
2022-08-21T03:49:05.814Z,99.90
2022-08-21T03:54:07.466Z,99.90
2022-08-21T03:59:09.655Z,99.90
2022-08-21T04:04:11.270Z,99.90
2022-08-21T04:09:15.483Z,99.90
2022-08-21T04:14:18.272Z,99.90
2022-08-21T04:19:20.128Z,99.90
2022-08-21T04:24:21.744Z,99.90
2022-08-21T04:29:23.413Z,99.90
2022-08-21T04:34:25.027Z,99.90
2022-08-21T04:39:29.660Z,99.90
2022-08-21T04:44:31.856Z,99.90
2022-08-21T04:49:34.037Z,99.90
2022-08-21T04:54:36.021Z,99.90
2022-08-21T04:59:51.592Z,99.90
2022-08-21T05:04:55.450Z,99.90
2022-08-21T05:09:59.660Z,99.90
2022-08-21T05:15:01.508Z,99.90
2022-08-21T05:20:04.168Z,99.90
2022-08-21T05:25:10.540Z,99.90
2022-08-21T05:30:12.864Z,99.90
2022-08-21T05:35:14.661Z,99.90
2022-08-21T05:40:21.448Z,99.90
2022-08-21T05:45:43.316Z,99.90
2022-08-21T05:50:47.303Z,99.90
2022-08-21T05:55:49.834Z,99.90
2022-08-21T06:00:52.734Z,99.90
2022-08-21T06:05:55.420Z,99.90
2022-08-21T06:10:58.918Z,99.90
2022-08-21T06:16:09.901Z,99.90
2022-08-21T06:21:12.564Z,99.90
2022-08-21T06:26:14.987Z,99.90
2022-08-21T06:31:22.367Z,99.90
2022-08-21T06:36:24.361Z,99.90
2022-08-21T06:41:26.419Z,99.90
2022-08-21T06:46:30.707Z,99.90
2022-08-21T06:51:32.364Z,99.90
2022-08-21T06:56:36.120Z,99.90
2022-08-21T07:01:37.842Z,99.90
2022-08-21T07:06:39.495Z,99.90
2022-08-21T07:11:44.204Z,99.90
2022-08-21T07:16:49.919Z,99.90
2022-08-21T07:21:51.966Z,99.90
2022-08-21T07:26:53.684Z,99.90
2022-08-21T07:31:55.432Z,99.90
2022-08-21T07:36:59.540Z,99.90
2022-08-21T07:42:08.652Z,99.90
2022-08-21T07:47:10.399Z,99.90
2022-08-21T07:52:12.007Z,99.90
2022-08-21T07:57:13.675Z,99.90
2022-08-21T08:02:46.062Z,99.90
2022-08-21T08:07:48.597Z,99.90
2022-08-21T08:12:52.170Z,99.90
2022-08-21T08:17:55.639Z,99.90
2022-08-21T08:22:57.389Z,99.90
2022-08-21T08:27:59.103Z,99.90
2022-08-21T08:33:01.296Z,99.90
2022-08-21T08:38:03.653Z,99.90
2022-08-21T08:43:06.396Z,99.90
2022-08-21T08:48:14.623Z,99.90
2022-08-21T08:53:31.030Z,99.90
2022-08-21T08:58:40.242Z,99.90
2022-08-21T09:03:41.941Z,99.90
2022-08-21T09:08:55.768Z,99.90
2022-08-21T09:14:20.100Z,99.90
2022-08-21T09:19:37.324Z,99.90
2022-08-21T09:24:54.790Z,99.90
2022-08-21T09:29:58.700Z,99.90
2022-08-21T09:35:09.643Z,99.90
2022-08-21T09:40:37.144Z,99.90
2022-08-21T09:45:40.474Z,99.90
2022-08-21T09:50:44.163Z,99.90
2022-08-21T09:56:09.579Z,99.90
2022-08-21T10:01:21.955Z,99.80
2022-08-21T10:06:28.731Z,99.20
2022-08-21T10:11:30.985Z,98.50
2022-08-21T10:16:45.204Z,98.20
2022-08-21T10:22:20.702Z,98.60
2022-08-21T10:27:44.923Z,97.60
2022-08-21T10:32:56.328Z,96.30
2022-08-21T10:38:55.243Z,95.90
2022-08-21T10:44:10.058Z,95.80
2022-08-21T10:49:23.934Z,95.10
2022-08-21T10:54:46.280Z,93.60
2022-08-21T11:00:02.683Z,93.60
2022-08-21T11:05:15.055Z,93.00
2022-08-21T11:10:27.443Z,92.80
2022-08-21T11:15:35.719Z,91.40
2022-08-21T11:20:55.632Z,92.30
2022-08-21T11:26:24.930Z,90.00
2022-08-21T11:31:57.771Z,89.90
2022-08-21T11:37:34.461Z,85.40
2022-08-21T11:42:57.132Z,82.80
2022-08-21T11:48:18.002Z,83.90
2022-08-21T11:53:24.565Z,83.10
2022-08-21T11:58:47.781Z,81.10
2022-08-21T12:04:24.423Z,80.50
2022-08-21T12:09:33.586Z,79.90
2022-08-21T12:14:48.688Z,82.80
2022-08-21T12:20:02.340Z,81.60
2022-08-21T12:25:19.665Z,78.70
2022-08-21T12:30:29.264Z,78.20
2022-08-21T12:35:41.263Z,75.00
2022-08-21T12:40:48.187Z,75.20
2022-08-21T12:45:51.936Z,74.60
2022-08-21T12:51:12.056Z,74.20
2022-08-21T12:56:16.718Z,73.20
2022-08-21T13:01:25.634Z,73.40
2022-08-21T13:06:30.118Z,73.10
2022-08-21T13:11:34.245Z,73.70
2022-08-21T13:16:36.249Z,71.00
2022-08-21T13:21:43.785Z,70.20
2022-08-21T13:26:46.425Z,69.50
2022-08-21T13:31:53.388Z,69.30
2022-08-21T13:36:59.627Z,68.80
2022-08-21T13:42:05.391Z,65.90
2022-08-21T13:47:10.340Z,65.80
2022-08-21T13:52:26.766Z,63.60
2022-08-21T13:57:34.135Z,63.40
2022-08-21T14:02:41.183Z,63.20
2022-08-21T14:07:44.273Z,60.40
2022-08-21T14:12:55.999Z,59.50
2022-08-21T14:18:16.694Z,57.50
2022-08-21T14:23:28.213Z,57.30
2022-08-21T14:28:33.857Z,56.20
2022-08-21T14:33:35.994Z,55.70
2022-08-21T14:38:40.586Z,55.00
2022-08-21T14:43:42.930Z,54.30
2022-08-21T14:48:44.551Z,53.00
2022-08-21T14:53:47.393Z,54.10
2022-08-21T14:58:52.497Z,54.00
2022-08-21T15:03:54.139Z,54.50
2022-08-21T15:08:55.795Z,54.40
2022-08-21T15:14:01.295Z,56.80
2022-08-21T15:19:05.350Z,55.70
2022-08-21T15:24:07.027Z,61.60
2022-08-21T15:29:09.342Z,56.40
2022-08-21T15:34:12.117Z,57.30
2022-08-21T15:39:14.186Z,57.10
2022-08-21T15:44:16.960Z,61.20
2022-08-21T15:49:18.615Z,56.40
2022-08-21T15:54:20.271Z,57.60
2022-08-21T15:59:23.355Z,56.90
2022-08-21T16:04:28.705Z,58.00
2022-08-21T16:09:30.273Z,58.60
2022-08-21T16:14:34.009Z,59.10
2022-08-21T16:19:37.213Z,58.30
2022-08-21T16:24:38.889Z,58.70
2022-08-21T16:29:42.351Z,58.90
2022-08-21T16:34:47.296Z,59.40
2022-08-21T16:39:49.209Z,59.40
2022-08-21T16:44:53.991Z,59.20
2022-08-21T16:49:55.665Z,58.80
2022-08-21T16:54:57.504Z,60.90
2022-08-21T16:59:59.287Z,58.40
2022-08-21T17:05:02.490Z,59.00
2022-08-21T17:10:05.836Z,58.00
2022-08-21T17:15:21.186Z,57.90
2022-08-21T17:20:24.396Z,58.10
2022-08-21T17:25:26.954Z,58.40
2022-08-21T17:30:28.623Z,58.80
2022-08-21T17:35:30.291Z,59.00
2022-08-21T17:40:32.113Z,61.00
2022-08-21T17:45:39.044Z,62.20
2022-08-21T17:50:40.899Z,62.90
2022-08-21T17:55:42.731Z,62.60
2022-08-21T18:00:46.750Z,61.90
2022-08-21T18:05:50.660Z,63.20
2022-08-21T18:10:52.635Z,64.60
2022-08-21T18:15:55.748Z,65.20
2022-08-21T18:20:57.989Z,67.40
2022-08-21T18:25:59.800Z,66.70
2022-08-21T18:31:01.443Z,66.80
2022-08-21T18:36:04.620Z,66.60
2022-08-21T18:41:09.519Z,67.20
2022-08-21T18:46:12.573Z,67.40
2022-08-21T18:51:14.286Z,67.70
2022-08-21T18:56:16.219Z,67.90
2022-08-21T19:01:17.995Z,68.10
2022-08-21T19:06:20.199Z,68.50
2022-08-21T19:11:25.000Z,69.20
2022-08-21T19:16:27.212Z,70.30
2022-08-21T19:21:29.072Z,70.50
2022-08-21T19:26:33.927Z,71.20
2022-08-21T19:31:41.642Z,71.10
2022-08-21T19:36:43.876Z,71.80
2022-08-21T19:41:48.919Z,72.30
2022-08-21T19:46:54.808Z,72.90
2022-08-21T19:51:58.508Z,73.70
2022-08-21T19:57:04.591Z,75.00
2022-08-21T20:02:07.138Z,75.20
2022-08-21T20:07:08.794Z,76.30
2022-08-21T20:12:14.527Z,79.00
2022-08-21T20:17:18.267Z,79.20
2022-08-21T20:22:20.067Z,80.00
2022-08-21T20:27:27.407Z,80.90
2022-08-21T20:32:30.346Z,80.90
2022-08-21T20:37:37.181Z,81.50
2022-08-21T20:42:44.631Z,82.40
2022-08-21T20:47:46.859Z,83.20
2022-08-21T20:53:05.506Z,84.10
2022-08-21T20:58:19.012Z,84.90
2022-08-21T21:03:45.186Z,84.00
2022-08-21T21:09:07.791Z,83.80
2022-08-21T21:14:26.922Z,83.90
2022-08-21T21:20:10.076Z,84.10
2022-08-21T21:25:59.455Z,84.40
2022-08-21T21:31:03.843Z,84.30
2022-08-21T21:36:56.207Z,84.50
2022-08-21T21:42:16.117Z,85.10
2022-08-21T21:48:08.188Z,85.40
2022-08-21T21:53:34.300Z,85.90
2022-08-21T21:58:57.527Z,86.40
2022-08-21T22:04:30.995Z,86.60
2022-08-21T22:09:42.253Z,87.10
2022-08-21T22:14:46.649Z,87.30
2022-08-21T22:19:52.432Z,87.70
2022-08-21T22:25:07.875Z,88.00
2022-08-21T22:30:16.368Z,88.20
2022-08-21T22:35:22.703Z,88.40
2022-08-21T22:40:28.961Z,88.70
2022-08-21T22:45:32.987Z,88.90
2022-08-21T22:50:37.082Z,89.20
2022-08-21T22:55:54.826Z,89.60
2022-08-21T23:01:25.512Z,90.00
2022-08-21T23:12:33.184Z,90.30
2022-08-21T23:18:15.166Z,90.50
2022-08-21T23:23:28.453Z,90.80
2022-08-21T23:28:45.853Z,90.90
2022-08-21T23:33:50.039Z,91.10
2022-08-21T23:39:20.580Z,91.30
2022-08-21T23:44:41.072Z,91.50
2022-08-21T23:50:14.173Z,91.70
2022-08-21T23:55:52.176Z,91.90
